Terminal Aerodrome Forecast
Issued by NWS

Home | Current Version | Previous Version | Graphics & Text | Print | Product List | Glossary On
Versions: 1 2 3 4 5 6 7 8 9 10 11 12 13 14
000
FTUS43 KICT 111120
TAFCNU
TAF
KCNU 111120Z 1112/1212 19017G26KT P6SM OVC025
     FM111500 20012KT 6SM -DZ BR OVC012
     FM111800 24008KT P6SM OVC015
     FM112200 34013KT P6SM OVC025
     FM120200 34010KT P6SM SKC=

USA.gov is the U.S. government's official web portal to all federal, state and local government web resources and services.